sensor_id;sensor_type;location;lat;lon;timestamp;pressure;altitude;pressure_sealevel;temperature;humidity
78383;BME280;67668;52.294;4.692;2023-02-13T00:00:57;103878.47;;;8.77;71.60
78383;BME280;67668;52.294;4.692;2023-02-13T00:03:22;103872.31;;;8.77;71.27
78383;BME280;67668;52.294;4.692;2023-02-13T00:05:47;103871.44;;;8.76;71.83
78383;BME280;67668;52.294;4.692;2023-02-13T00:08:13;103875.84;;;8.76;71.74
78383;BME280;67668;52.294;4.692;2023-02-13T00:10:38;103871.44;;;8.76;71.74
78383;BME280;67668;52.294;4.692;2023-02-13T00:13:03;103869.72;;;8.75;72.13
78383;BME280;67668;52.294;4.692;2023-02-13T00:15:29;103869.72;;;8.75;72.07
78383;BME280;67668;52.294;4.692;2023-02-13T00:17:54;103869.72;;;8.75;71.83
78383;BME280;67668;52.294;4.692;2023-02-13T00:20:20;103875.00;;;8.75;71.93
78383;BME280;67668;52.294;4.692;2023-02-13T00:22:45;103868.84;;;8.75;71.72
78383;BME280;67668;52.294;4.692;2023-02-13T00:25:10;103864.50;;;8.74;71.63
78383;BME280;67668;52.294;4.692;2023-02-13T00:27:36;103867.19;;;8.72;71.88
78383;BME280;67668;52.294;4.692;2023-02-13T00:30:02;103867.19;;;8.72;71.57
78383;BME280;67668;52.294;4.692;2023-02-13T00:32:28;103863.66;;;8.72;71.74
78383;BME280;67668;52.294;4.692;2023-02-13T00:34:53;103870.69;;;8.73;71.71
78383;BME280;67668;52.294;4.692;2023-02-13T00:37:18;103864.53;;;8.72;71.68
78383;BME280;67668;52.294;4.692;2023-02-13T00:39:44;103856.69;;;8.71;71.67
78383;BME280;67668;52.294;4.692;2023-02-13T00:42:09;103859.34;;;8.71;72.10
78383;BME280;67668;52.294;4.692;2023-02-13T00:44:34;103865.47;;;8.71;71.89
78383;BME280;67668;52.294;4.692;2023-02-13T00:47:00;103857.56;;;8.71;72.24
78383;BME280;67668;52.294;4.692;2023-02-13T00:49:25;103856.72;;;8.69;72.19
78383;BME280;67668;52.294;4.692;2023-02-13T00:51:50;103861.09;;;8.70;72.01
78383;BME280;67668;52.294;4.692;2023-02-13T00:54:16;103853.22;;;8.69;72.08
78383;BME280;67668;52.294;4.692;2023-02-13T00:56:41;103854.09;;;8.69;71.57
78383;BME280;67668;52.294;4.692;2023-02-13T00:59:06;103855.88;;;8.69;71.61
78383;BME280;67668;52.294;4.692;2023-02-13T01:04:07;103855.88;;;8.69;71.90
78383;BME280;67668;52.294;4.692;2023-02-13T01:06:32;103852.34;;;8.68;72.29
78383;BME280;67668;52.294;4.692;2023-02-13T01:08:58;103850.66;;;8.67;71.97
78383;BME280;67668;52.294;4.692;2023-02-13T01:11:23;103849.72;;;8.68;72.27
78383;BME280;67668;52.294;4.692;2023-02-13T01:13:48;103846.25;;;8.68;72.23
78383;BME280;67668;52.294;4.692;2023-02-13T01:16:13;103851.53;;;8.68;71.97
78383;BME280;67668;52.294;4.692;2023-02-13T01:18:42;103845.41;;;8.66;72.29
78383;BME280;67668;52.294;4.692;2023-02-13T01:21:11;103848.06;;;8.66;72.16
78383;BME280;67668;52.294;4.692;2023-02-13T01:23:39;103852.44;;;8.67;72.24
78383;BME280;67668;52.294;4.692;2023-02-13T01:26:06;103848.94;;;8.66;71.86
78383;BME280;67668;52.294;4.692;2023-02-13T01:28:32;103843.66;;;8.66;71.66
78383;BME280;67668;52.294;4.692;2023-02-13T01:30:58;103838.38;;;8.66;72.66
78383;BME280;67668;52.294;4.692;2023-02-13T01:33:25;103835.72;;;8.66;71.89
78383;BME280;67668;52.294;4.692;2023-02-13T01:35:51;103848.06;;;8.66;71.67
78383;BME280;67668;52.294;4.692;2023-02-13T01:38:17;103845.38;;;8.67;71.75
78383;BME280;67668;52.294;4.692;2023-02-13T01:40:53;103847.16;;;8.67;71.72
78383;BME280;67668;52.294;4.692;2023-02-13T01:43:20;103839.22;;;8.67;72.37
78383;BME280;67668;52.294;4.692;2023-02-13T01:45:50;103855.06;;;8.67;72.19
78383;BME280;67668;52.294;4.692;2023-02-13T01:48:21;103846.28;;;8.66;71.67
78383;BME280;67668;52.294;4.692;2023-02-13T01:50:51;103853.41;;;8.64;70.63
78383;BME280;67668;52.294;4.692;2023-02-13T01:53:39;103843.00;;;8.60;70.44
78383;BME280;67668;52.294;4.692;2023-02-13T01:56:12;103838.81;;;8.54;70.08
78383;BME280;67668;52.294;4.692;2023-02-13T01:58:40;103835.34;;;8.52;70.91
78383;BME280;67668;52.294;4.692;2023-02-13T02:01:08;103840.69;;;8.51;70.15
78383;BME280;67668;52.294;4.692;2023-02-13T02:03:38;103843.38;;;8.49;71.04
78383;BME280;67668;52.294;4.692;2023-02-13T02:06:11;103841.72;;;8.47;69.59
78383;BME280;67668;52.294;4.692;2023-02-13T02:08:38;103841.84;;;8.44;69.19
78383;BME280;67668;52.294;4.692;2023-02-13T02:11:26;103840.22;;;8.40;69.87
78383;BME280;67668;52.294;4.692;2023-02-13T02:13:49;103842.09;;;8.36;70.04
78383;BME280;67668;52.294;4.692;2023-02-13T02:16:15;103838.78;;;8.31;68.66
78383;BME280;67668;52.294;4.692;2023-02-13T02:18:40;103835.31;;;8.29;69.91
78383;BME280;67668;52.294;4.692;2023-02-13T02:21:14;103837.03;;;8.30;70.32
78383;BME280;67668;52.294;4.692;2023-02-13T02:26:37;103827.19;;;8.35;70.25
78383;BME280;67668;52.294;4.692;2023-02-13T02:29:49;103834.25;;;8.35;71.60
78383;BME280;67668;52.294;4.692;2023-02-13T02:35:16;103827.19;;;8.35;69.71
78383;BME280;67668;52.294;4.692;2023-02-13T02:38:12;103820.34;;;8.29;69.36
78383;BME280;67668;52.294;4.692;2023-02-13T02:40:59;103820.41;;;8.28;71.05
78383;BME280;67668;52.294;4.692;2023-02-13T02:46:17;103818.69;;;8.25;69.99
78383;BME280;67668;52.294;4.692;2023-02-13T02:48:54;103816.97;;;8.24;69.13
78383;BME280;67668;52.294;4.692;2023-02-13T02:51:46;103824.91;;;8.24;70.22
78383;BME280;67668;52.294;4.692;2023-02-13T02:54:38;103817.13;;;8.20;68.64
78383;BME280;67668;52.294;4.692;2023-02-13T02:57:27;103817.25;;;8.17;70.34
78383;BME280;67668;52.294;4.692;2023-02-13T03:00:16;103816.38;;;8.16;70.09
78383;BME280;67668;52.294;4.692;2023-02-13T03:03:04;103820.69;;;8.19;70.52
78383;BME280;67668;52.294;4.692;2023-02-13T03:05:50;103814.50;;;8.20;70.61
78383;BME280;67668;52.294;4.692;2023-02-13T03:08:35;103816.25;;;8.19;69.58
78383;BME280;67668;52.294;4.692;2023-02-13T03:11:20;103817.13;;;8.20;71.24
78383;BME280;67668;52.294;4.692;2023-02-13T03:14:06;103817.09;;;8.21;70.87
78383;BME280;67668;52.294;4.692;2023-02-13T03:16:34;103814.38;;;8.23;71.37
78383;BME280;67668;52.294;4.692;2023-02-13T03:25:23;103819.56;;;8.26;71.68
78383;BME280;67668;52.294;4.692;2023-02-13T03:28:22;103811.72;;;8.24;70.91
78383;BME280;67668;52.294;4.692;2023-02-13T03:36:19;103804.66;;;8.25;71.72
78383;BME280;67668;52.294;4.692;2023-02-13T03:41:55;103809.97;;;8.23;71.52
78383;BME280;67668;52.294;4.692;2023-02-13T03:47:04;103807.56;;;8.17;69.96
78383;BME280;67668;52.294;4.692;2023-02-13T03:49:40;103801.44;;;8.15;70.32
78383;BME280;67668;52.294;4.692;2023-02-13T03:52:40;103811.16;;;8.15;71.64
78383;BME280;67668;52.294;4.692;2023-02-13T03:55:15;103801.53;;;8.14;70.68
78383;BME280;67668;52.294;4.692;2023-02-13T03:58:10;103792.81;;;8.12;71.73
78383;BME280;67668;52.294;4.692;2023-02-13T04:00:57;103794.50;;;8.13;70.71
78383;BME280;67668;52.294;4.692;2023-02-13T04:05:58;103802.38;;;8.14;70.69
78383;BME280;67668;52.294;4.692;2023-02-13T04:08:26;103797.97;;;8.15;71.13
78383;BME280;67668;52.294;4.692;2023-02-13T04:11:37;103800.63;;;8.15;71.64
78383;BME280;67668;52.294;4.692;2023-02-13T04:13:46;103800.66;;;8.13;71.32
78383;BME280;67668;52.294;4.692;2023-02-13T04:16:23;103796.25;;;8.14;70.70
78383;BME280;67668;52.294;4.692;2023-02-13T04:18:54;103794.41;;;8.16;71.84
78383;BME280;67668;52.294;4.692;2023-02-13T04:21:20;103790.91;;;8.15;71.80
78383;BME280;67668;52.294;4.692;2023-02-13T04:23:46;103791.84;;;8.14;70.69
78383;BME280;67668;52.294;4.692;2023-02-13T04:26:16;103791.88;;;8.13;70.62
78383;BME280;67668;52.294;4.692;2023-02-13T04:28:42;103788.44;;;8.11;71.39
78383;BME280;67668;52.294;4.692;2023-02-13T04:31:07;103797.22;;;8.11;71.71
78383;BME280;67668;52.294;4.692;2023-02-13T04:33:33;103798.09;;;8.12;71.48
78383;BME280;67668;52.294;4.692;2023-02-13T04:35:58;103796.34;;;8.11;70.29
78383;BME280;67668;52.294;4.692;2023-02-13T04:38:24;103790.19;;;8.12;71.60
78383;BME280;67668;52.294;4.692;2023-02-13T04:40:50;103790.09;;;8.13;72.24
78383;BME280;67668;52.294;4.692;2023-02-13T04:43:15;103792.72;;;8.15;71.90
78383;BME280;67668;52.294;4.692;2023-02-13T04:45:40;103782.16;;;8.15;71.68
78383;BME280;67668;52.294;4.692;2023-02-13T04:48:06;103793.59;;;8.14;71.84
78383;BME280;67668;52.294;4.692;2023-02-13T04:50:31;103788.25;;;8.15;72.60
78383;BME280;67668;52.294;4.692;2023-02-13T04:52:56;103783.06;;;8.14;71.64
78383;BME280;67668;52.294;4.692;2023-02-13T04:55:24;103791.88;;;8.13;71.05
78383;BME280;67668;52.294;4.692;2023-02-13T04:57:53;103787.53;;;8.12;71.79
78383;BME280;67668;52.294;4.692;2023-02-13T05:00:21;103784.06;;;8.10;72.04
78383;BME280;67668;52.294;4.692;2023-02-13T05:02:46;103781.41;;;8.11;72.10
78383;BME280;67668;52.294;4.692;2023-02-13T05:05:12;103781.31;;;8.13;71.17
78383;BME280;67668;52.294;4.692;2023-02-13T05:07:37;103783.06;;;8.14;72.50
78383;BME280;67668;52.294;4.692;2023-02-13T05:10:02;103784.78;;;8.15;72.60
78383;BME280;67668;52.294;4.692;2023-02-13T05:12:28;103778.56;;;8.16;72.32
78383;BME280;67668;52.294;4.692;2023-02-13T05:14:53;103779.56;;;8.13;70.93
78383;BME280;67668;52.294;4.692;2023-02-13T05:17:19;103778.75;;;8.11;70.30
78383;BME280;67668;52.294;4.692;2023-02-13T05:19:44;103773.53;;;8.10;70.80
78383;BME280;67668;52.294;4.692;2023-02-13T05:22:09;103780.56;;;8.09;71.38
78383;BME280;67668;52.294;4.692;2023-02-13T05:24:53;103775.38;;;8.08;70.94
78383;BME280;67668;52.294;4.692;2023-02-13T05:27:19;103778.00;;;8.08;72.32
78383;BME280;67668;52.294;4.692;2023-02-13T05:29:44;103782.44;;;8.06;72.01
78383;BME280;67668;52.294;4.692;2023-02-13T05:32:09;103777.19;;;8.06;70.98
78383;BME280;67668;52.294;4.692;2023-02-13T05:34:35;103778.16;;;8.03;70.52
78383;BME280;67668;52.294;4.692;2023-02-13T05:37:00;103781.66;;;8.04;71.78
78383;BME280;67668;52.294;4.692;2023-02-13T05:39:25;103774.72;;;8.01;71.70
78383;BME280;67668;52.294;4.692;2023-02-13T05:41:51;103779.16;;;7.99;71.48
78383;BME280;67668;52.294;4.692;2023-02-13T05:44:16;103783.53;;;8.00;71.32
78383;BME280;67668;52.294;4.692;2023-02-13T05:46:42;103773.97;;;7.98;71.05
78383;BME280;67668;52.294;4.692;2023-02-13T05:49:10;103780.22;;;7.95;71.42
78383;BME280;67668;52.294;4.692;2023-02-13T05:51:35;103779.25;;;7.98;71.94
78383;BME280;67668;52.294;4.692;2023-02-13T05:54:01;103778.25;;;8.00;72.93
78383;BME280;67668;52.294;4.692;2023-02-13T05:56:27;103774.72;;;8.01;72.43
78383;BME280;67668;52.294;4.692;2023-02-13T05:58:52;103775.47;;;8.05;72.76
78383;BME280;67668;52.294;4.692;2023-02-13T06:01:18;103778.91;;;8.07;72.73
78383;BME280;67668;52.294;4.692;2023-02-13T06:03:44;103778.88;;;8.08;73.31
78383;BME280;67668;52.294;4.692;2023-02-13T06:06:10;103790.19;;;8.12;72.77
78383;BME280;67668;52.294;4.692;2023-02-13T06:08:35;103784.84;;;8.13;72.87
78383;BME280;67668;52.294;4.692;2023-02-13T06:11:00;103773.41;;;8.13;71.16
78383;BME280;67668;52.294;4.692;2023-02-13T06:13:26;103777.00;;;8.12;72.16
78383;BME280;67668;52.294;4.692;2023-02-13T06:15:51;103774.28;;;8.13;72.62
78383;BME280;67668;52.294;4.692;2023-02-13T06:18:17;103770.72;;;8.14;72.61
78383;BME280;67668;52.294;4.692;2023-02-13T06:20:42;103777.78;;;8.14;72.81
78383;BME280;67668;52.294;4.692;2023-02-13T06:23:08;103776.88;;;8.15;72.34
78383;BME280;67668;52.294;4.692;2023-02-13T06:25:34;103780.34;;;8.15;72.14
78383;BME280;67668;52.294;4.692;2023-02-13T06:28:00;103775.94;;;8.16;73.30
78383;BME280;67668;52.294;4.692;2023-02-13T06:30:25;103775.94;;;8.16;72.32
78383;BME280;67668;52.294;4.692;2023-02-13T06:32:51;103771.50;;;8.18;73.40
78383;BME280;67668;52.294;4.692;2023-02-13T06:35:16;103776.75;;;8.18;72.63
78383;BME280;67668;52.294;4.692;2023-02-13T06:37:42;103766.22;;;8.18;72.72
78383;BME280;67668;52.294;4.692;2023-02-13T06:40:08;103771.41;;;8.19;72.54
78383;BME280;67668;52.294;4.692;2023-02-13T06:42:33;103764.38;;;8.20;73.24
78383;BME280;67668;52.294;4.692;2023-02-13T06:44:59;103767.00;;;8.20;72.68
78383;BME280;67668;52.294;4.692;2023-02-13T06:47:24;103767.88;;;8.20;72.22
78383;BME280;67668;52.294;4.692;2023-02-13T06:49:49;103767.88;;;8.20;72.12
78383;BME280;67668;52.294;4.692;2023-02-13T06:52:15;103771.38;;;8.21;72.13
78383;BME280;67668;52.294;4.692;2023-02-13T06:54:40;103774.94;;;8.20;72.19
78383;BME280;67668;52.294;4.692;2023-02-13T06:57:06;103770.56;;;8.19;72.46
78383;BME280;67668;52.294;4.692;2023-02-13T06:59:31;103777.56;;;8.20;72.75
78383;BME280;67668;52.294;4.692;2023-02-13T07:01:56;103781.97;;;8.19;72.50
78383;BME280;67668;52.294;4.692;2023-02-13T07:04:22;103786.38;;;8.19;71.74
78383;BME280;67668;52.294;4.692;2023-02-13T07:06:47;103783.75;;;8.19;72.05
78383;BME280;67668;52.294;4.692;2023-02-13T07:09:12;103785.53;;;8.18;71.88
78383;BME280;67668;52.294;4.692;2023-02-13T07:11:38;103789.13;;;8.16;71.27
78383;BME280;67668;52.294;4.692;2023-02-13T07:14:06;103797.88;;;8.18;72.17
78383;BME280;67668;52.294;4.692;2023-02-13T07:16:32;103797.88;;;8.18;72.13
78383;BME280;67668;52.294;4.692;2023-02-13T07:18:57;103791.66;;;8.19;72.70
78383;BME280;67668;52.294;4.692;2023-02-13T07:21:25;103805.72;;;8.19;72.98
78383;BME280;67668;52.294;4.692;2023-02-13T07:23:52;103806.59;;;8.20;72.93
78383;BME280;67668;52.294;4.692;2023-02-13T07:26:18;103797.75;;;8.21;73.26
78383;BME280;67668;52.294;4.692;2023-02-13T07:28:43;103802.09;;;8.22;72.49
78383;BME280;67668;52.294;4.692;2023-02-13T07:31:09;103803.91;;;8.21;72.99
78383;BME280;67668;52.294;4.692;2023-02-13T07:33:34;103799.41;;;8.23;72.82
78383;BME280;67668;52.294;4.692;2023-02-13T07:36:00;103803.84;;;8.23;73.28
78383;BME280;67668;52.294;4.692;2023-02-13T07:38:28;103803.78;;;8.24;73.56
78383;BME280;67668;52.294;4.692;2023-02-13T07:40:53;103801.16;;;8.24;72.92
78383;BME280;67668;52.294;4.692;2023-02-13T07:43:19;103800.19;;;8.27;73.15
78383;BME280;67668;52.294;4.692;2023-02-13T07:45:44;103808.97;;;8.27;73.41
78383;BME280;67668;52.294;4.692;2023-02-13T07:48:11;103807.22;;;8.26;73.13
78383;BME280;67668;52.294;4.692;2023-02-13T07:50:36;103811.56;;;8.29;73.64
78383;BME280;67668;52.294;4.692;2023-02-13T07:53:01;103806.28;;;8.29;73.46
78383;BME280;67668;52.294;4.692;2023-02-13T07:55:27;103808.88;;;8.30;73.41
78383;BME280;67668;52.294;4.692;2023-02-13T07:57:53;103808.00;;;8.30;73.68
78383;BME280;67668;52.294;4.692;2023-02-13T08:00:19;103816.78;;;8.30;73.13
78383;BME280;67668;52.294;4.692;2023-02-13T08:02:44;103817.66;;;8.31;73.42
78383;BME280;67668;52.294;4.692;2023-02-13T08:05:10;103812.31;;;8.32;73.46
78383;BME280;67668;52.294;4.692;2023-02-13T08:07:35;103818.47;;;8.33;73.34
78383;BME280;67668;52.294;4.692;2023-02-13T08:10:01;103814.03;;;8.34;73.84
78383;BME280;67668;52.294;4.692;2023-02-13T08:12:46;103819.31;;;8.34;73.34
78383;BME280;67668;52.294;4.692;2023-02-13T08:15:12;103820.13;;;8.36;73.27
78383;BME280;67668;52.294;4.692;2023-02-13T08:17:37;103824.56;;;8.35;73.15
78383;BME280;67668;52.294;4.692;2023-02-13T08:20:03;103833.31;;;8.36;73.43
78383;BME280;67668;52.294;4.692;2023-02-13T08:22:28;103835.16;;;8.34;73.45
78383;BME280;67668;52.294;4.692;2023-02-13T08:24:54;103818.47;;;8.33;73.38
78383;BME280;67668;52.294;4.692;2023-02-13T08:27:19;103818.47;;;8.33;72.88
78383;BME280;67668;52.294;4.692;2023-02-13T08:29:44;103815.88;;;8.32;73.18
78383;BME280;67668;52.294;4.692;2023-02-13T08:32:10;103821.09;;;8.33;73.55
78383;BME280;67668;52.294;4.692;2023-02-13T08:34:35;103821.09;;;8.33;73.48
78383;BME280;67668;52.294;4.692;2023-02-13T08:37:01;103823.81;;;8.32;73.23
78383;BME280;67668;52.294;4.692;2023-02-13T08:39:27;103818.47;;;8.33;73.71
78383;BME280;67668;52.294;4.692;2023-02-13T08:41:52;103810.50;;;8.35;73.59
78383;BME280;67668;52.294;4.692;2023-02-13T08:44:17;103809.53;;;8.37;74.10
78383;BME280;67668;52.294;4.692;2023-02-13T08:46:43;103811.25;;;8.38;73.57
78383;BME280;67668;52.294;4.692;2023-02-13T08:49:08;103817.31;;;8.40;73.60
78383;BME280;67668;52.294;4.692;2023-02-13T08:51:33;103814.69;;;8.40;73.26
78383;BME280;67668;52.294;4.692;2023-02-13T08:53:59;103818.31;;;8.38;72.96
78383;BME280;67668;52.294;4.692;2023-02-13T08:56:25;103812.84;;;8.42;73.70
78383;BME280;67668;52.294;4.692;2023-02-13T08:58:52;103812.84;;;8.42;73.55
78383;BME280;67668;52.294;4.692;2023-02-13T09:01:17;103811.16;;;8.41;73.21
78383;BME280;67668;52.294;4.692;2023-02-13T09:03:42;103811.25;;;8.38;73.31
78383;BME280;67668;52.294;4.692;2023-02-13T09:06:08;103820.72;;;8.44;73.51
78383;BME280;67668;52.294;4.692;2023-02-13T09:08:34;103816.19;;;8.47;73.72
78383;BME280;67668;52.294;4.692;2023-02-13T09:11:03;103819.94;;;8.42;73.27
78383;BME280;67668;52.294;4.692;2023-02-13T09:13:30;103819.84;;;8.43;74.15
78383;BME280;67668;52.294;4.692;2023-02-13T09:16:00;103819.00;;;8.43;73.47
78383;BME280;67668;52.294;4.692;2023-02-13T09:18:27;103826.97;;;8.41;73.35
78383;BME280;67668;52.294;4.692;2023-02-13T09:21:03;103826.00;;;8.44;74.03
78383;BME280;67668;52.294;4.692;2023-02-13T09:23:31;103816.13;;;8.49;74.75
78383;BME280;67668;52.294;4.692;2023-02-13T09:26:03;103820.38;;;8.53;74.10
78383;BME280;67668;52.294;4.692;2023-02-13T09:28:30;103825.53;;;8.56;73.82
78383;BME280;67668;52.294;4.692;2023-02-13T09:30:56;103817.47;;;8.60;73.87
78383;BME280;67668;52.294;4.692;2023-02-13T09:33:22;103817.25;;;8.66;73.88
78383;BME280;67668;52.294;4.692;2023-02-13T09:35:47;103819.97;;;8.65;73.89
78383;BME280;67668;52.294;4.692;2023-02-13T09:38:13;103817.25;;;8.66;74.33
78383;BME280;67668;52.294;4.692;2023-02-13T09:43:13;103819.53;;;8.75;73.54
78383;BME280;67668;52.294;4.692;2023-02-13T09:45:41;103819.66;;;8.72;73.20
78383;BME280;67668;52.294;4.692;2023-02-13T09:48:10;103824.81;;;8.75;72.96
78383;BME280;67668;52.294;4.692;2023-02-13T09:50:37;103821.22;;;8.78;74.10
78383;BME280;67668;52.294;4.692;2023-02-13T09:53:03;103813.09;;;8.82;73.74
78383;BME280;67668;52.294;4.692;2023-02-13T09:57:59;103816.56;;;8.85;72.66
78383;BME280;67668;52.294;4.692;2023-02-13T10:00:37;103816.63;;;8.83;73.42
78383;BME280;67668;52.294;4.692;2023-02-13T10:05:55;103807.78;;;8.84;73.30
78383;BME280;67668;52.294;4.692;2023-02-13T10:08:40;103808.53;;;8.88;72.47
78383;BME280;67668;52.294;4.692;2023-02-13T10:22:00;103813.97;;;9.06;73.14
78383;BME280;67668;52.294;4.692;2023-02-13T10:24:36;103798.06;;;9.08;72.77
78383;BME280;67668;52.294;4.692;2023-02-13T10:27:17;103805.75;;;9.14;72.75
78383;BME280;67668;52.294;4.692;2023-02-13T10:29:49;103808.38;;;9.14;72.36
78383;BME280;67668;52.294;4.692;2023-02-13T10:33:03;103801.94;;;9.21;73.06
78383;BME280;67668;52.294;4.692;2023-02-13T10:38:22;103807.41;;;9.38;72.59
78383;BME280;67668;52.294;4.692;2023-02-13T10:43:59;103803.13;;;9.57;71.20
78383;BME280;67668;52.294;4.692;2023-02-13T10:46:41;103801.13;;;9.62;71.70
78383;BME280;67668;52.294;4.692;2023-02-13T10:54:45;103794.00;;;9.84;70.72
78383;BME280;67668;52.294;4.692;2023-02-13T10:57:27;103794.69;;;9.90;71.44
78383;BME280;67668;52.294;4.692;2023-02-13T11:02:21;103798.53;;;10.03;70.00
78383;BME280;67668;52.294;4.692;2023-02-13T11:04:51;103791.19;;;10.09;70.18
78383;BME280;67668;52.294;4.692;2023-02-13T11:07:23;103791.69;;;10.19;70.68
78383;BME280;67668;52.294;4.692;2023-02-13T11:09:53;103782.81;;;10.20;69.48
78383;BME280;67668;52.294;4.692;2023-02-13T11:12:23;103792.28;;;10.25;69.57
78383;BME280;67668;52.294;4.692;2023-02-13T11:14:57;103788.28;;;10.35;69.72
78383;BME280;67668;52.294;4.692;2023-02-13T11:17:24;103780.03;;;10.43;69.48
78383;BME280;67668;52.294;4.692;2023-02-13T11:19:56;103782.88;;;10.57;68.38
78383;BME280;67668;52.294;4.692;2023-02-13T11:22:27;103766.78;;;10.62;69.19
78383;BME280;67668;52.294;4.692;2023-02-13T11:24:59;103763.66;;;10.72;68.42
78383;BME280;67668;52.294;4.692;2023-02-13T11:27:32;103760.56;;;10.81;68.43
78383;BME280;67668;52.294;4.692;2023-02-13T11:29:59;103755.25;;;10.81;66.81
78383;BME280;67668;52.294;4.692;2023-02-13T11:32:28;103754.06;;;10.88;67.21
78383;BME280;67668;52.294;4.692;2023-02-13T11:34:54;103754.56;;;10.97;68.24
78383;BME280;67668;52.294;4.692;2023-02-13T11:37:24;103756.19;;;10.99;66.11
78383;BME280;67668;52.294;4.692;2023-02-13T11:39:52;103756.06;;;11.02;66.35
78383;BME280;67668;52.294;4.692;2023-02-13T11:42:25;103750.31;;;11.11;68.64
78383;BME280;67668;52.294;4.692;2023-02-13T11:44:51;103746.06;;;11.26;69.57
78383;BME280;67668;52.294;4.692;2023-02-13T11:47:38;103752.94;;;11.30;66.09
78383;BME280;67668;52.294;4.692;2023-02-13T11:50:19;103741.72;;;11.42;68.33
78383;BME280;67668;52.294;4.692;2023-02-13T11:52:53;103742.06;;;11.53;68.16
78383;BME280;67668;52.294;4.692;2023-02-13T11:55:32;103734.09;;;11.70;67.15
78383;BME280;67668;52.294;4.692;2023-02-13T12:00:40;103736.16;;;11.82;64.06
78383;BME280;67668;52.294;4.692;2023-02-13T12:03:29;103738.91;;;11.97;67.17
78383;BME280;67668;52.294;4.692;2023-02-13T12:08:29;103728.91;;;12.19;64.53
78383;BME280;67668;52.294;4.692;2023-02-13T12:10:56;103723.28;;;12.25;62.92
78383;BME280;67668;52.294;4.692;2023-02-13T12:13:32;103721.84;;;12.35;65.10
78383;BME280;67668;52.294;4.692;2023-02-13T12:16:02;103721.25;;;12.46;64.77
78383;BME280;67668;52.294;4.692;2023-02-13T12:18:37;103720.31;;;12.47;62.29
78383;BME280;67668;52.294;4.692;2023-02-13T12:23:55;103715.72;;;12.66;63.44
78383;BME280;67668;52.294;4.692;2023-02-13T12:26:37;103705.91;;;12.66;61.81
78383;BME280;67668;52.294;4.692;2023-02-13T12:34:29;103714.78;;;12.82;63.59
78383;BME280;67668;52.294;4.692;2023-02-13T12:45:46;103710.56;;;13.25;61.81
78383;BME280;67668;52.294;4.692;2023-02-13T12:48:38;103706.69;;;13.31;62.00
78383;BME280;67668;52.294;4.692;2023-02-13T13:05:12;103705.56;;;13.65;60.74
78383;BME280;67668;52.294;4.692;2023-02-13T13:16:10;103677.72;;;13.84;58.85
78383;BME280;67668;52.294;4.692;2023-02-13T13:18:54;103680.00;;;13.90;60.15
78383;BME280;67668;52.294;4.692;2023-02-13T13:23:58;103676.88;;;13.98;57.96
78383;BME280;67668;52.294;4.692;2023-02-13T13:26:34;103669.16;;;13.93;57.65
78383;BME280;67668;52.294;4.692;2023-02-13T13:29:05;103675.09;;;13.98;59.15
78383;BME280;67668;52.294;4.692;2023-02-13T13:31:34;103668.50;;;14.04;59.42
78383;BME280;67668;52.294;4.692;2023-02-13T13:34:01;103665.00;;;14.04;59.71
78383;BME280;67668;52.294;4.692;2023-02-13T13:36:38;103657.66;;;14.07;60.08
78383;BME280;67668;52.294;4.692;2023-02-13T13:39:18;103654.72;;;14.12;59.85
78383;BME280;67668;52.294;4.692;2023-02-13T13:49:56;103640.72;;;14.22;55.92
78383;BME280;67668;52.294;4.692;2023-02-13T13:52:28;103636.81;;;14.28;58.86
78383;BME280;67668;52.294;4.692;2023-02-13T13:54:55;103633.84;;;14.32;57.78
78383;BME280;67668;52.294;4.692;2023-02-13T13:57:25;103622.94;;;14.37;58.73
78383;BME280;67668;52.294;4.692;2023-02-13T13:59:56;103624.00;;;14.34;59.49
78383;BME280;67668;52.294;4.692;2023-02-13T14:07:50;103625.00;;;14.46;59.76
78383;BME280;67668;52.294;4.692;2023-02-13T14:23:45;103620.63;;;14.45;58.71
78383;BME280;67668;52.294;4.692;2023-02-13T14:28:55;103633.94;;;14.45;57.71
78383;BME280;67668;52.294;4.692;2023-02-13T14:34:04;103631.41;;;14.43;59.00
78383;BME280;67668;52.294;4.692;2023-02-13T14:36:34;103628.44;;;14.48;59.12
78383;BME280;67668;52.294;4.692;2023-02-13T14:39:04;103634.72;;;14.47;59.29
78383;BME280;67668;52.294;4.692;2023-02-13T14:41:43;103635.25;;;14.52;60.92
78383;BME280;67668;52.294;4.692;2023-02-13T14:44:23;103624.84;;;14.62;60.76
78383;BME280;67668;52.294;4.692;2023-02-13T14:46:51;103620.59;;;14.59;57.54
78383;BME280;67668;52.294;4.692;2023-02-13T14:49:24;103618.28;;;14.67;59.55
78383;BME280;67668;52.294;4.692;2023-02-13T14:51:54;103615.31;;;14.72;59.22
78383;BME280;67668;52.294;4.692;2023-02-13T14:54:32;103611.81;;;14.71;58.92
78383;BME280;67668;52.294;4.692;2023-02-13T14:57:15;103618.50;;;14.64;58.35
78383;BME280;67668;52.294;4.692;2023-02-13T14:59:46;103606.97;;;14.64;57.84
78383;BME280;67668;52.294;4.692;2023-02-13T15:02:25;103607.47;;;14.56;55.01
78383;BME280;67668;52.294;4.692;2023-02-13T15:05:04;103611.00;;;14.57;58.38
78383;BME280;67668;52.294;4.692;2023-02-13T15:07:41;103615.56;;;14.55;58.23
78383;BME280;67668;52.294;4.692;2023-02-13T15:12:58;103606.75;;;14.40;59.31
78383;BME280;67668;52.294;4.692;2023-02-13T15:15:34;103601.22;;;14.29;58.70
78383;BME280;67668;52.294;4.692;2023-02-13T15:18:03;103601.41;;;14.26;58.94
78383;BME280;67668;52.294;4.692;2023-02-13T15:20:34;103602.66;;;14.20;58.84
78383;BME280;67668;52.294;4.692;2023-02-13T15:23:01;103602.09;;;14.15;59.11
78383;BME280;67668;52.294;4.692;2023-02-13T15:25:35;103600.88;;;14.07;60.16
78383;BME280;67668;52.294;4.692;2023-02-13T15:28:03;103596.81;;;14.01;57.02
78383;BME280;67668;52.294;4.692;2023-02-13T15:30:35;103596.13;;;13.97;59.03
78383;BME280;67668;52.294;4.692;2023-02-13T15:33:18;103601.75;;;13.93;59.28
78383;BME280;67668;52.294;4.692;2023-02-13T15:35:44;103594.63;;;13.93;59.99
78383;BME280;67668;52.294;4.692;2023-02-13T15:40:43;103599.66;;;13.84;61.36